sensor_id;sensor_type;location;lat;lon;timestamp;pressure;altitude;pressure_sealevel;temperature;humidity
32131;BME280;18639;50.716;7.086;2023-04-22T00:02:02;99669.78;;;9.64;100.00
32131;BME280;18639;50.716;7.086;2023-04-22T00:04:27;99650.00;;;9.52;100.00
32131;BME280;18639;50.716;7.086;2023-04-22T00:06:53;99670.59;;;9.64;100.00
32131;BME280;18639;50.716;7.086;2023-04-22T00:09:19;99668.94;;;9.63;100.00
32131;BME280;18639;50.716;7.086;2023-04-22T00:11:44;99652.47;;;9.53;100.00
32131;BME280;18639;50.716;7.086;2023-04-22T00:14:10;99660.72;;;9.58;100.00
32131;BME280;18639;50.716;7.086;2023-04-22T00:16:35;99652.16;;;9.58;100.00
32131;BME280;18639;50.716;7.086;2023-04-22T00:19:00;99665.97;;;9.57;100.00
32131;BME280;18639;50.716;7.086;2023-04-22T00:21:26;99668.44;;;9.58;100.00
32131;BME280;18639;50.716;7.086;2023-04-22T00:23:51;99665.03;;;9.58;100.00
32131;BME280;18639;50.716;7.086;2023-04-22T00:26:16;99661.63;;;9.57;100.00
32131;BME280;18639;50.716;7.086;2023-04-22T00:28:42;99664.94;;;9.59;100.00
32131;BME280;18639;50.716;7.086;2023-04-22T00:31:07;99659.06;;;9.57;100.00
32131;BME280;18639;50.716;7.086;2023-04-22T00:33:32;99619.06;;;9.28;100.00
32131;BME280;18639;50.716;7.086;2023-04-22T00:35:57;99659.69;;;9.61;100.00
32131;BME280;18639;50.716;7.086;2023-04-22T00:38:23;99638.16;;;9.49;100.00
32131;BME280;18639;50.716;7.086;2023-04-22T00:40:48;99659.69;;;9.61;100.00
32131;BME280;18639;50.716;7.086;2023-04-22T00:43:15;99647.91;;;9.57;100.00
32131;BME280;18639;50.716;7.086;2023-04-22T00:45:41;99669.66;;;9.65;100.00
32131;BME280;18639;50.716;7.086;2023-04-22T00:48:07;99669.88;;;9.62;100.00
32131;BME280;18639;50.716;7.086;2023-04-22T00:50:32;99659.78;;;9.59;100.00
32131;BME280;18639;50.716;7.086;2023-04-22T00:52:57;99661.63;;;9.57;100.00
32131;BME280;18639;50.716;7.086;2023-04-22T00:55:23;99668.84;;;9.65;100.00
32131;BME280;18639;50.716;7.086;2023-04-22T00:57:49;99662.75;;;9.66;100.00
32131;BME280;18639;50.716;7.086;2023-04-22T01:00:16;99651.47;;;9.56;100.00
32131;BME280;18639;50.716;7.086;2023-04-22T01:02:41;99664.50;;;9.65;100.00
32131;BME280;18639;50.716;7.086;2023-04-22T01:05:07;99652.44;;;9.66;100.00
32131;BME280;18639;50.716;7.086;2023-04-22T01:07:35;99653.75;;;9.71;100.00
32131;BME280;18639;50.716;7.086;2023-04-22T01:10:03;99654.59;;;9.72;100.00
32131;BME280;18639;50.716;7.086;2023-04-22T01:12:29;99651.88;;;9.73;100.00
32131;BME280;18639;50.716;7.086;2023-04-22T01:14:55;99658.44;;;9.78;100.00
32131;BME280;18639;50.716;7.086;2023-04-22T01:17:20;99655.75;;;9.79;100.00
32131;BME280;18639;50.716;7.086;2023-04-22T01:19:46;99643.19;;;9.75;100.00
32131;BME280;18639;50.716;7.086;2023-04-22T01:22:13;99651.00;;;9.86;100.00
32131;BME280;18639;50.716;7.086;2023-04-22T01:24:38;99645.84;;;9.86;100.00
32131;BME280;18639;50.716;7.086;2023-04-22T01:27:04;99645.59;;;9.89;100.00
32131;BME280;18639;50.716;7.086;2023-04-22T01:29:29;99640.56;;;9.87;100.00
32131;BME280;18639;50.716;7.086;2023-04-22T01:31:54;99651.25;;;9.94;100.00
32131;BME280;18639;50.716;7.086;2023-04-22T01:34:20;99632.94;;;9.86;100.00
32131;BME280;18639;50.716;7.086;2023-04-22T01:36:46;99647.03;;;9.93;100.00
32131;BME280;18639;50.716;7.086;2023-04-22T01:39:11;99638.81;;;9.88;100.00
32131;BME280;18639;50.716;7.086;2023-04-22T01:41:36;99651.75;;;9.99;100.00
32131;BME280;18639;50.716;7.086;2023-04-22T01:44:02;99649.88;;;10.01;100.00
32131;BME280;18639;50.716;7.086;2023-04-22T01:46:28;99636.47;;;9.96;100.00
32131;BME280;18639;50.716;7.086;2023-04-22T01:48:53;99647.56;;;10.09;100.00
32131;BME280;18639;50.716;7.086;2023-04-22T01:51:19;99650.00;;;10.10;100.00
32131;BME280;18639;50.716;7.086;2023-04-22T01:53:45;99640.31;;;10.14;100.00
32131;BME280;18639;50.716;7.086;2023-04-22T01:56:11;99603.16;;;9.93;100.00
32131;BME280;18639;50.716;7.086;2023-04-22T01:58:38;99636.34;;;10.21;100.00
32131;BME280;18639;50.716;7.086;2023-04-22T02:01:03;99613.88;;;10.10;100.00
32131;BME280;18639;50.716;7.086;2023-04-22T02:03:28;99628.47;;;10.23;100.00
32131;BME280;18639;50.716;7.086;2023-04-22T02:05:53;99622.50;;;10.22;100.00
32131;BME280;18639;50.716;7.086;2023-04-22T02:08:19;99622.28;;;10.25;100.00
32131;BME280;18639;50.716;7.086;2023-04-22T02:10:44;99616.50;;;10.22;100.00
32131;BME280;18639;50.716;7.086;2023-04-22T02:13:09;99618.06;;;10.24;100.00
32131;BME280;18639;50.716;7.086;2023-04-22T02:15:35;99592.19;;;10.13;100.00
32131;BME280;18639;50.716;7.086;2023-04-22T02:18:00;99612.53;;;10.29;100.00
32131;BME280;18639;50.716;7.086;2023-04-22T02:20:26;99616.88;;;10.28;100.00
32131;BME280;18639;50.716;7.086;2023-04-22T02:22:51;99618.53;;;10.29;100.00
32131;BME280;18639;50.716;7.086;2023-04-22T02:25:16;99585.72;;;10.07;100.00
32131;BME280;18639;50.716;7.086;2023-04-22T02:27:42;99616.88;;;10.28;100.00
32131;BME280;18639;50.716;7.086;2023-04-22T02:30:08;99623.22;;;10.24;100.00
32131;BME280;18639;50.716;7.086;2023-04-22T02:32:33;99610.53;;;10.21;100.00
32131;BME280;18639;50.716;7.086;2023-04-22T02:35:01;99611.22;;;10.23;100.00
32131;BME280;18639;50.716;7.086;2023-04-22T02:37:27;99628.84;;;10.29;100.00
32131;BME280;18639;50.716;7.086;2023-04-22T02:39:52;99634.16;;;10.39;100.00
32131;BME280;18639;50.716;7.086;2023-04-22T02:42:17;99615.94;;;10.29;100.00
32131;BME280;18639;50.716;7.086;2023-04-22T02:44:42;99620.41;;;10.38;100.00
32131;BME280;18639;50.716;7.086;2023-04-22T02:47:08;99616.78;;;10.41;100.00
32131;BME280;18639;50.716;7.086;2023-04-22T02:49:33;99607.75;;;10.35;100.00
32131;BME280;18639;50.716;7.086;2023-04-22T02:51:58;99617.13;;;10.47;100.00
32131;BME280;18639;50.716;7.086;2023-04-22T02:54:23;99609.38;;;10.47;100.00
32131;BME280;18639;50.716;7.086;2023-04-22T02:56:49;99599.19;;;10.46;100.00
32131;BME280;18639;50.716;7.086;2023-04-22T02:59:14;99607.28;;;10.64;100.00
32131;BME280;18639;50.716;7.086;2023-04-22T03:01:39;99603.38;;;10.69;100.00
32131;BME280;18639;50.716;7.086;2023-04-22T03:04:04;99585.56;;;10.66;100.00
32131;BME280;18639;50.716;7.086;2023-04-22T03:06:30;99570.63;;;10.70;100.00
32131;BME280;18639;50.716;7.086;2023-04-22T03:08:55;99605.50;;;10.97;100.00
32131;BME280;18639;50.716;7.086;2023-04-22T03:11:21;99605.25;;;11.01;100.00
32131;BME280;18639;50.716;7.086;2023-04-22T03:13:46;99584.25;;;10.94;100.00
32131;BME280;18639;50.716;7.086;2023-04-22T03:16:11;99593.59;;;11.06;100.00
32131;BME280;18639;50.716;7.086;2023-04-22T03:18:37;99586.81;;;11.05;100.00
32131;BME280;18639;50.716;7.086;2023-04-22T03:21:02;99588.41;;;11.17;100.00
32131;BME280;18639;50.716;7.086;2023-04-22T03:23:28;99590.50;;;11.23;100.00
32131;BME280;18639;50.716;7.086;2023-04-22T03:25:53;99577.38;;;11.15;100.00
32131;BME280;18639;50.716;7.086;2023-04-22T03:28:18;99598.25;;;11.34;100.00
32131;BME280;18639;50.716;7.086;2023-04-22T03:30:43;99599.84;;;11.47;100.00
32131;BME280;18639;50.716;7.086;2023-04-22T03:33:10;99600.19;;;11.53;100.00
32131;BME280;18639;50.716;7.086;2023-04-22T03:35:35;99583.63;;;11.45;100.00
32131;BME280;18639;50.716;7.086;2023-04-22T03:38:01;99597.59;;;11.53;100.00
32131;BME280;18639;50.716;7.086;2023-04-22T03:40:26;99582.81;;;11.44;100.00
32131;BME280;18639;50.716;7.086;2023-04-22T03:42:51;99568.38;;;11.42;100.00
32131;BME280;18639;50.716;7.086;2023-04-22T03:45:16;99592.63;;;11.61;100.00
32131;BME280;18639;50.716;7.086;2023-04-22T03:47:42;99590.75;;;11.63;100.00
32131;BME280;18639;50.716;7.086;2023-04-22T03:50:07;99578.38;;;11.67;100.00
32131;BME280;18639;50.716;7.086;2023-04-22T03:52:33;99570.47;;;11.68;100.00
32131;BME280;18639;50.716;7.086;2023-04-22T03:54:58;99576.13;;;11.73;100.00
32131;BME280;18639;50.716;7.086;2023-04-22T03:57:23;99565.66;;;11.75;100.00
32131;BME280;18639;50.716;7.086;2023-04-22T03:59:48;99557.19;;;11.73;100.00
32131;BME280;18639;50.716;7.086;2023-04-22T04:02:14;99544.97;;;11.75;100.00
32131;BME280;18639;50.716;7.086;2023-04-22T04:04:39;99537.88;;;11.77;100.00
32131;BME280;18639;50.716;7.086;2023-04-22T04:07:06;99545.69;;;11.87;100.00
32131;BME280;18639;50.716;7.086;2023-04-22T04:09:31;99555.50;;;11.83;100.00
32131;BME280;18639;50.716;7.086;2023-04-22T04:11:57;99537.63;;;11.80;100.00
32131;BME280;18639;50.716;7.086;2023-04-22T04:14:22;99535.22;;;11.88;100.00
32131;BME280;18639;50.716;7.086;2023-04-22T04:16:47;99543.09;;;11.87;100.00
32131;BME280;18639;50.716;7.086;2023-04-22T04:19:13;99538.06;;;11.85;100.00
32131;BME280;18639;50.716;7.086;2023-04-22T04:21:38;99542.88;;;11.90;100.00
32131;BME280;18639;50.716;7.086;2023-04-22T04:24:05;99533.72;;;11.86;100.00
32131;BME280;18639;50.716;7.086;2023-04-22T04:26:30;99539.44;;;11.89;100.00
32131;BME280;18639;50.716;7.086;2023-04-22T04:28:56;99524.31;;;11.85;100.00
32131;BME280;18639;50.716;7.086;2023-04-22T04:31:22;99529.34;;;11.86;100.00
32131;BME280;18639;50.716;7.086;2023-04-22T04:33:48;99524.88;;;11.88;100.00
32131;BME280;18639;50.716;7.086;2023-04-22T04:36:14;99527.88;;;11.93;100.00
32131;BME280;18639;50.716;7.086;2023-04-22T04:38:40;99533.78;;;11.95;100.00
32131;BME280;18639;50.716;7.086;2023-04-22T04:41:05;99517.28;;;11.96;100.00
32131;BME280;18639;50.716;7.086;2023-04-22T04:43:32;99524.16;;;12.07;100.00
32131;BME280;18639;50.716;7.086;2023-04-22T04:45:58;99523.72;;;12.02;100.00
32131;BME280;18639;50.716;7.086;2023-04-22T04:48:23;99530.13;;;12.07;100.00
32131;BME280;18639;50.716;7.086;2023-04-22T04:50:52;99523.72;;;12.02;100.00
32131;BME280;18639;50.716;7.086;2023-04-22T04:53:18;99527.38;;;11.99;100.00
32131;BME280;18639;50.716;7.086;2023-04-22T04:55:44;99497.31;;;11.87;100.00
32131;BME280;18639;50.716;7.086;2023-04-22T04:58:09;99539.03;;;12.14;100.00
32131;BME280;18639;50.716;7.086;2023-04-22T05:00:34;99517.88;;;12.09;100.00
32131;BME280;18639;50.716;7.086;2023-04-22T05:03:00;99535.94;;;12.20;100.00
32131;BME280;18639;50.716;7.086;2023-04-22T05:05:25;99471.78;;;11.73;100.00
32131;BME280;18639;50.716;7.086;2023-04-22T05:07:50;99531.03;;;12.17;100.00
32131;BME280;18639;50.716;7.086;2023-04-22T05:10:17;99527.25;;;12.31;100.00
32131;BME280;18639;50.716;7.086;2023-04-22T05:12:43;99521.00;;;12.34;100.00
32131;BME280;18639;50.716;7.086;2023-04-22T05:15:10;99531.94;;;12.37;100.00
32131;BME280;18639;50.716;7.086;2023-04-22T05:17:35;99499.41;;;12.23;100.00
32131;BME280;18639;50.716;7.086;2023-04-22T05:20:01;99539.22;;;12.53;100.00
32131;BME280;18639;50.716;7.086;2023-04-22T05:22:27;99491.19;;;12.18;100.00
32131;BME280;18639;50.716;7.086;2023-04-22T05:24:52;99521.06;;;12.53;100.00
32131;BME280;18639;50.716;7.086;2023-04-22T05:27:17;99539.94;;;12.64;100.00
32131;BME280;18639;50.716;7.086;2023-04-22T05:29:42;99529.03;;;12.71;100.00
32131;BME280;18639;50.716;7.086;2023-04-22T05:32:08;99530.97;;;12.88;100.00
32131;BME280;18639;50.716;7.086;2023-04-22T05:34:34;99518.16;;;12.86;100.00
32131;BME280;18639;50.716;7.086;2023-04-22T05:37:01;99467.22;;;12.66;100.00
32131;BME280;18639;50.716;7.086;2023-04-22T05:39:26;99525.00;;;13.06;100.00
32131;BME280;18639;50.716;7.086;2023-04-22T05:41:52;99547.72;;;13.24;100.00
32131;BME280;18639;50.716;7.086;2023-04-22T05:44:18;99531.59;;;13.20;100.00
32131;BME280;18639;50.716;7.086;2023-04-22T05:46:44;99538.44;;;13.31;100.00
32131;BME280;18639;50.716;7.086;2023-04-22T05:49:09;99530.94;;;13.28;100.00
32131;BME280;18639;50.716;7.086;2023-04-22T05:51:34;99517.53;;;13.23;100.00
32131;BME280;18639;50.716;7.086;2023-04-22T05:53:59;99530.38;;;13.34;100.00
32131;BME280;18639;50.716;7.086;2023-04-22T05:56:25;99500.44;;;13.01;100.00
32131;BME280;18639;50.716;7.086;2023-04-22T05:58:50;99462.75;;;12.87;99.59
32131;BME280;18639;50.716;7.086;2023-04-22T06:01:15;99513.59;;;13.28;97.36
32131;BME280;18639;50.716;7.086;2023-04-22T06:03:41;99536.25;;;13.36;97.90
32131;BME280;18639;50.716;7.086;2023-04-22T06:06:06;99497.88;;;13.20;96.56
32131;BME280;18639;50.716;7.086;2023-04-22T06:08:31;99483.53;;;13.26;98.00
32131;BME280;18639;50.716;7.086;2023-04-22T06:10:57;99488.88;;;13.34;96.93
32131;BME280;18639;50.716;7.086;2023-04-22T06:13:22;99487.63;;;13.38;97.46
32131;BME280;18639;50.716;7.086;2023-04-22T06:15:47;99513.81;;;13.64;95.48
32131;BME280;18639;50.716;7.086;2023-04-22T06:18:13;99498.66;;;13.59;95.47
32131;BME280;18639;50.716;7.086;2023-04-22T06:20:38;99521.59;;;13.73;94.29
32131;BME280;18639;50.716;7.086;2023-04-22T06:23:03;99513.00;;;13.63;96.01
32131;BME280;18639;50.716;7.086;2023-04-22T06:25:29;99530.50;;;13.71;95.37
32131;BME280;18639;50.716;7.086;2023-04-22T06:27:55;99508.09;;;13.60;94.94
32131;BME280;18639;50.716;7.086;2023-04-22T06:30:21;99518.34;;;13.71;94.19
32131;BME280;18639;50.716;7.086;2023-04-22T06:32:46;99540.19;;;13.78;96.89
32131;BME280;18639;50.716;7.086;2023-04-22T06:35:11;99536.50;;;13.81;95.96
32131;BME280;18639;50.716;7.086;2023-04-22T06:37:37;99531.69;;;13.86;95.92
32131;BME280;18639;50.716;7.086;2023-04-22T06:40:02;99519.53;;;13.86;95.31
32131;BME280;18639;50.716;7.086;2023-04-22T06:42:27;99502.53;;;14.02;94.76
32131;BME280;18639;50.716;7.086;2023-04-22T06:44:53;99512.28;;;14.27;94.91
32131;BME280;18639;50.716;7.086;2023-04-22T06:47:18;99511.69;;;14.43;94.72
32131;BME280;18639;50.716;7.086;2023-04-22T06:49:43;99511.38;;;14.55;94.61
32131;BME280;18639;50.716;7.086;2023-04-22T06:52:09;99512.72;;;14.59;92.59
32131;BME280;18639;50.716;7.086;2023-04-22T06:54:34;99516.09;;;14.69;92.70
32131;BME280;18639;50.716;7.086;2023-04-22T06:56:59;99513.66;;;14.86;94.30
32131;BME280;18639;50.716;7.086;2023-04-22T06:59:25;99500.00;;;14.84;91.03
32131;BME280;18639;50.716;7.086;2023-04-22T07:01:50;99523.97;;;15.05;88.08
32131;BME280;18639;50.716;7.086;2023-04-22T07:04:16;99497.84;;;14.97;89.40
32131;BME280;18639;50.716;7.086;2023-04-22T07:06:42;99537.19;;;15.29;88.18
32131;BME280;18639;50.716;7.086;2023-04-22T07:09:07;99524.53;;;15.34;88.00
32131;BME280;18639;50.716;7.086;2023-04-22T07:11:32;99528.81;;;15.53;88.11
32131;BME280;18639;50.716;7.086;2023-04-22T07:13:58;99503.78;;;15.60;87.25
32131;BME280;18639;50.716;7.086;2023-04-22T07:16:23;99464.44;;;15.45;87.24
32131;BME280;18639;50.716;7.086;2023-04-22T07:18:48;99503.19;;;15.92;85.46
32131;BME280;18639;50.716;7.086;2023-04-22T07:21:14;99510.53;;;16.22;83.89
32131;BME280;18639;50.716;7.086;2023-04-22T07:23:39;99501.00;;;16.39;81.61
32131;BME280;18639;50.716;7.086;2023-04-22T07:26:04;99505.47;;;16.55;84.44
32131;BME280;18639;50.716;7.086;2023-04-22T07:28:30;99509.44;;;16.67;79.15
32131;BME280;18639;50.716;7.086;2023-04-22T07:30:55;99500.97;;;16.65;78.37
32131;BME280;18639;50.716;7.086;2023-04-22T07:33:20;99488.56;;;16.67;79.47
32131;BME280;18639;50.716;7.086;2023-04-22T07:35:47;99487.94;;;16.73;78.78
32131;BME280;18639;50.716;7.086;2023-04-22T07:38:12;99502.81;;;16.89;78.66
32131;BME280;18639;50.716;7.086;2023-04-22T07:40:37;99489.31;;;16.93;72.82
32131;BME280;18639;50.716;7.086;2023-04-22T07:43:03;99504.63;;;17.04;72.00
32131;BME280;18639;50.716;7.086;2023-04-22T07:45:29;99501.72;;;17.23;73.06
32131;BME280;18639;50.716;7.086;2023-04-22T07:47:55;99497.81;;;17.44;68.90
32131;BME280;18639;50.716;7.086;2023-04-22T07:50:20;99493.38;;;17.52;68.10
32131;BME280;18639;50.716;7.086;2023-04-22T07:52:46;99443.63;;;17.46;71.52
32131;BME280;18639;50.716;7.086;2023-04-22T07:55:11;99414.56;;;17.41;65.34
32131;BME280;18639;50.716;7.086;2023-04-22T07:57:36;99493.19;;;18.02;66.09
32131;BME280;18639;50.716;7.086;2023-04-22T08:00:05;99481.59;;;18.05;67.82
32131;BME280;18639;50.716;7.086;2023-04-22T08:02:30;99472.06;;;18.12;65.71
32131;BME280;18639;50.716;7.086;2023-04-22T08:04:56;99479.09;;;18.20;63.63
32131;BME280;18639;50.716;7.086;2023-04-22T08:07:21;99482.09;;;18.39;66.27
32131;BME280;18639;50.716;7.086;2023-04-22T08:09:46;99430.84;;;18.22;62.07
32131;BME280;18639;50.716;7.086;2023-04-22T08:12:11;99457.72;;;18.47;61.79
32131;BME280;18639;50.716;7.086;2023-04-22T08:14:38;99452.44;;;18.63;61.20
32131;BME280;18639;50.716;7.086;2023-04-22T08:17:03;99469.13;;;18.62;60.24
32131;BME280;18639;50.716;7.086;2023-04-22T08:19:29;99440.19;;;18.56;59.86
32131;BME280;18639;50.716;7.086;2023-04-22T08:21:54;99449.34;;;18.82;61.52
32131;BME280;18639;50.716;7.086;2023-04-22T08:24:20;99459.13;;;18.88;62.25
32131;BME280;18639;50.716;7.086;2023-04-22T08:26:45;99439.00;;;18.89;59.66
32131;BME280;18639;50.716;7.086;2023-04-22T08:29:11;99445.13;;;19.04;61.55
32131;BME280;18639;50.716;7.086;2023-04-22T08:31:37;99440.13;;;19.17;59.75
32131;BME280;18639;50.716;7.086;2023-04-22T08:34:02;99450.91;;;19.37;57.06
32131;BME280;18639;50.716;7.086;2023-04-22T08:36:27;99432.56;;;19.37;57.28
32131;BME280;18639;50.716;7.086;2023-04-22T08:38:54;99450.53;;;19.63;59.76
32131;BME280;18639;50.716;7.086;2023-04-22T08:41:20;99439.78;;;19.58;55.70
32131;BME280;18639;50.716;7.086;2023-04-22T08:43:46;99442.88;;;19.76;57.20
32131;BME280;18639;50.716;7.086;2023-04-22T08:46:12;99445.13;;;19.79;55.42
32131;BME280;18639;50.716;7.086;2023-04-22T08:48:39;99456.59;;;19.78;54.15
32131;BME280;18639;50.716;7.086;2023-04-22T08:51:05;99459.41;;;20.06;56.60
32131;BME280;18639;50.716;7.086;2023-04-22T08:53:30;99439.22;;;20.21;55.27
32131;BME280;18639;50.716;7.086;2023-04-22T08:55:56;99431.00;;;20.24;54.60
32131;BME280;18639;50.716;7.086;2023-04-22T08:58:22;99441.47;;;20.53;53.72
32131;BME280;18639;50.716;7.086;2023-04-22T09:00:48;99432.72;;;20.68;53.97
32131;BME280;18639;50.716;7.086;2023-04-22T09:03:15;99430.25;;;20.81;51.98
32131;BME280;18639;50.716;7.086;2023-04-22T09:05:41;99411.28;;;21.07;51.46
32131;BME280;18639;50.716;7.086;2023-04-22T09:08:08;99436.97;;;21.26;51.75
32131;BME280;18639;50.716;7.086;2023-04-22T09:10:36;99422.16;;;21.46;50.59
32131;BME280;18639;50.716;7.086;2023-04-22T09:13:03;99429.72;;;21.90;49.67
32131;BME280;18639;50.716;7.086;2023-04-22T09:15:29;99398.56;;;22.41;50.41
32131;BME280;18639;50.716;7.086;2023-04-22T09:17:54;99412.06;;;22.92;47.88
32131;BME280;18639;50.716;7.086;2023-04-22T09:20:27;99423.13;;;24.00;47.01
32131;BME280;18639;50.716;7.086;2023-04-22T09:22:54;99427.28;;;24.78;46.05
32131;BME280;18639;50.716;7.086;2023-04-22T09:25:27;99416.53;;;25.29;44.13
32131;BME280;18639;50.716;7.086;2023-04-22T09:27:57;99408.47;;;24.93;44.07
32131;BME280;18639;50.716;7.086;2023-04-22T09:30:27;99406.66;;;24.55;43.82
32131;BME280;18639;50.716;7.086;2023-04-22T09:32:57;99400.38;;;23.99;43.30
32131;BME280;18639;50.716;7.086;2023-04-22T09:35:31;99426.50;;;23.49;43.80
32131;BME280;18639;50.716;7.086;2023-04-22T09:37:58;99422.81;;;23.70;44.45
32131;BME280;18639;50.716;7.086;2023-04-22T09:40:24;99399.31;;;23.29;44.77
32131;BME280;18639;50.716;7.086;2023-04-22T09:42:51;99421.16;;;22.83;44.02
32131;BME280;18639;50.716;7.086;2023-04-22T09:45:43;99387.91;;;22.08;45.82
32131;BME280;18639;50.716;7.086;2023-04-22T09:48:14;99418.63;;;21.67;46.98
32131;BME280;18639;50.716;7.086;2023-04-22T09:50:48;99409.41;;;21.77;47.56
32131;BME280;18639;50.716;7.086;2023-04-22T09:53:16;99411.69;;;21.59;48.04
32131;BME280;18639;50.716;7.086;2023-04-22T09:55:43;99401.69;;;21.76;48.31
32131;BME280;18639;50.716;7.086;2023-04-22T09:58:11;99386.59;;;22.39;49.48
32131;BME280;18639;50.716;7.086;2023-04-22T10:00:49;99431.13;;;23.01;45.10
32131;BME280;18639;50.716;7.086;2023-04-22T10:03:15;99404.16;;;22.86;44.85
32131;BME280;18639;50.716;7.086;2023-04-22T10:05:41;99421.63;;;23.53;46.25
32131;BME280;18639;50.716;7.086;2023-04-22T10:08:08;99421.47;;;24.12;42.81
32131;BME280;18639;50.716;7.086;2023-04-22T10:10:35;99434.03;;;24.16;43.40
32131;BME280;18639;50.716;7.086;2023-04-22T10:13:01;99446.78;;;23.55;42.36
32131;BME280;18639;50.716;7.086;2023-04-22T10:15:38;99419.56;;;23.08;44.18
32131;BME280;18639;50.716;7.086;2023-04-22T10:18:07;99431.91;;;22.75;45.64
32131;BME280;18639;50.716;7.086;2023-04-22T10:20:35;99439.44;;;22.31;48.01
32131;BME280;18639;50.716;7.086;2023-04-22T10:23:03;99437.53;;;22.11;47.23
32131;BME280;18639;50.716;7.086;2023-04-22T10:25:29;99453.69;;;21.74;47.34
32131;BME280;18639;50.716;7.086;2023-04-22T10:28:03;99448.44;;;21.80;47.90
32131;BME280;18639;50.716;7.086;2023-04-22T10:30:31;99445.75;;;21.67;47.89
32131;BME280;18639;50.716;7.086;2023-04-22T10:36:14;99444.22;;;21.79;48.38
32131;BME280;18639;50.716;7.086;2023-04-22T10:41:33;99450.09;;;21.54;48.91
32131;BME280;18639;50.716;7.086;2023-04-22T10:44:08;99447.69;;;21.52;49.64
32131;BME280;18639;50.716;7.086;2023-04-22T10:49:08;99455.81;;;21.57;46.48
32131;BME280;18639;50.716;7.086;2023-04-22T10:51:44;99441.88;;;21.35;48.59
32131;BME280;18639;50.716;7.086;2023-04-22T10:57:09;99456.50;;;21.45;48.28
32131;BME280;18639;50.716;7.086;2023-04-22T10:59:46;99452.34;;;21.57;48.61
32131;BME280;18639;50.716;7.086;2023-04-22T11:02:15;99455.03;;;21.63;49.28
32131;BME280;18639;50.716;7.086;2023-04-22T11:04:41;99462.13;;;21.69;48.52
32131;BME280;18639;50.716;7.086;2023-04-22T11:09:49;99461.91;;;21.64;47.53
32131;BME280;18639;50.716;7.086;2023-04-22T11:17:32;99460.34;;;21.42;49.59
32131;BME280;18639;50.716;7.086;2023-04-22T11:19:58;99458.47;;;21.36;50.50
32131;BME280;18639;50.716;7.086;2023-04-22T11:22:24;99456.66;;;21.36;50.04
32131;BME280;18639;50.716;7.086;2023-04-22T11:24:56;99412.50;;;21.11;48.82
32131;BME280;18639;50.716;7.086;2023-04-22T11:27:22;99460.38;;;21.49;49.99
32131;BME280;18639;50.716;7.086;2023-04-22T11:30:10;99462.63;;;21.52;49.41
32131;BME280;18639;50.716;7.086;2023-04-22T11:32:44;99456.16;;;21.54;50.78
32131;BME280;18639;50.716;7.086;2023-04-22T11:35:12;99452.72;;;21.54;50.95
32131;BME280;18639;50.716;7.086;2023-04-22T11:37:49;99456.97;;;21.55;49.61
32131;BME280;18639;50.716;7.086;2023-04-22T11:40:19;99459.88;;;21.38;49.71
32131;BME280;18639;50.716;7.086;2023-04-22T11:42:46;99446.16;;;21.15;50.18
32131;BME280;18639;50.716;7.086;2023-04-22T11:45:12;99452.28;;;21.22;49.25
32131;BME280;18639;50.716;7.086;2023-04-22T11:47:38;99453.16;;;21.29;50.06
32131;BME280;18639;50.716;7.086;2023-04-22T11:50:06;99449.53;;;21.30;50.78
32131;BME280;18639;50.716;7.086;2023-04-22T11:52:54;99462.16;;;21.41;49.68
32131;BME280;18639;50.716;7.086;2023-04-22T11:55:31;99453.50;;;21.26;49.45
32131;BME280;18639;50.716;7.086;2023-04-22T11:58:14;99444.28;;;21.30;49.84
32131;BME280;18639;50.716;7.086;2023-04-22T12:00:42;99451.16;;;21.31;50.85
32131;BME280;18639;50.716;7.086;2023-04-22T12:05:39;99455.69;;;21.44;51.07
32131;BME280;18639;50.716;7.086;2023-04-22T12:08:13;99446.75;;;21.38;51.68
32131;BME280;18639;50.716;7.086;2023-04-22T12:10:40;99452.31;;;21.50;50.73
32131;BME280;18639;50.716;7.086;2023-04-22T12:13:06;99453.47;;;21.48;51.17
32131;BME280;18639;50.716;7.086;2023-04-22T12:15:41;99449.56;;;21.37;52.67
32131;BME280;18639;50.716;7.086;2023-04-22T12:18:07;99446.38;;;21.41;52.47
32131;BME280;18639;50.716;7.086;2023-04-22T12:20:34;99451.53;;;21.28;53.05
32131;BME280;18639;50.716;7.086;2023-04-22T12:23:00;99441.81;;;21.08;52.10
32131;BME280;18639;50.716;7.086;2023-04-22T12:25:26;99446.78;;;21.17;52.22
32131;BME280;18639;50.716;7.086;2023-04-22T12:27:51;99442.75;;;21.21;54.03
32131;BME280;18639;50.716;7.086;2023-04-22T12:30:16;99443.00;;;21.26;54.68
32131;BME280;18639;50.716;7.086;2023-04-22T12:32:42;99439.84;;;21.31;53.44
32131;BME280;18639;50.716;7.086;2023-04-22T12:35:07;99439.63;;;21.32;54.09
32131;BME280;18639;50.716;7.086;2023-04-22T12:37:33;99440.66;;;21.31;53.83
32131;BME280;18639;50.716;7.086;2023-04-22T12:39:58;99447.72;;;21.31;53.64
32131;BME280;18639;50.716;7.086;2023-04-22T12:42:24;99456.03;;;21.34;54.00
32131;BME280;18639;50.716;7.086;2023-04-22T12:44:49;99457.53;;;21.22;54.68
32131;BME280;18639;50.716;7.086;2023-04-22T12:47:14;99448.13;;;21.13;55.44
32131;BME280;18639;50.716;7.086;2023-04-22T12:49:42;99440.88;;;20.94;55.95
32131;BME280;18639;50.716;7.086;2023-04-22T12:52:08;99448.31;;;20.90;56.43
32131;BME280;18639;50.716;7.086;2023-04-22T12:54:33;99456.31;;;20.82;56.07
32131;BME280;18639;50.716;7.086;2023-04-22T12:56:59;99443.69;;;20.71;56.89
32131;BME280;18639;50.716;7.086;2023-04-22T12:59:25;99443.44;;;20.66;56.94
32131;BME280;18639;50.716;7.086;2023-04-22T13:01:50;99460.53;;;20.62;57.46
32131;BME280;18639;50.716;7.086;2023-04-22T13:04:17;99455.28;;;20.62;59.74
32131;BME280;18639;50.716;7.086;2023-04-22T13:06:43;99468.09;;;20.50;59.96
32131;BME280;18639;50.716;7.086;2023-04-22T13:09:08;99461.41;;;20.33;58.11
32131;BME280;18639;50.716;7.086;2023-04-22T13:11:33;99463.66;;;20.22;57.38
32131;BME280;18639;50.716;7.086;2023-04-22T13:13:59;99454.72;;;20.16;58.17
32131;BME280;18639;50.716;7.086;2023-04-22T13:16:24;99460.59;;;20.18;57.21